createdAt,value
2022-11-04T00:02:10.286Z,1.80
2022-11-04T00:04:37.957Z,1.90
2022-11-04T00:07:27.102Z,1.70
2022-11-04T00:09:55.015Z,1.80
2022-11-04T00:12:27.539Z,1.97
2022-11-04T00:15:15.278Z,1.47
2022-11-04T00:17:41.910Z,1.50
2022-11-04T00:20:27.384Z,1.40
2022-11-04T00:23:14.040Z,1.40
2022-11-04T00:25:58.963Z,1.50
2022-11-04T00:28:45.258Z,1.20
2022-11-04T00:31:30.257Z,1.37
2022-11-04T00:33:59.030Z,1.40
2022-11-04T00:36:27.372Z,1.17
2022-11-04T00:38:56.580Z,1.30
2022-11-04T00:41:27.621Z,1.30
2022-11-04T00:43:57.368Z,1.40
2022-11-04T00:46:25.398Z,1.40
2022-11-04T00:48:53.057Z,1.53
2022-11-04T00:51:21.647Z,1.60
2022-11-04T00:53:49.550Z,1.63
2022-11-04T00:56:18.544Z,1.63
2022-11-04T00:58:46.287Z,1.50
2022-11-04T01:01:17.770Z,1.40
2022-11-04T01:03:45.718Z,1.53
2022-11-04T01:06:13.369Z,1.63
2022-11-04T01:08:41.357Z,1.57
2022-11-04T01:11:09.835Z,1.60
2022-11-04T01:13:39.261Z,1.40
2022-11-04T01:16:07.846Z,1.50
2022-11-04T01:18:35.575Z,2.00
2022-11-04T01:21:03.262Z,1.70
2022-11-04T01:23:31.017Z,1.50
2022-11-04T01:25:58.756Z,1.63
2022-11-04T01:28:26.724Z,1.60
2022-11-04T01:30:58.985Z,2.10
2022-11-04T01:33:26.763Z,1.73
2022-11-04T01:35:54.458Z,1.57
2022-11-04T01:38:22.093Z,1.50
2022-11-04T01:40:49.732Z,1.40
2022-11-04T01:43:18.222Z,1.50
2022-11-04T01:45:47.550Z,1.60
2022-11-04T01:48:20.862Z,1.57
2022-11-04T01:50:49.267Z,1.93
2022-11-04T01:53:19.387Z,2.17
2022-11-04T01:55:49.330Z,1.60
2022-11-04T01:58:18.644Z,2.27
2022-11-04T02:00:46.308Z,2.10
2022-11-04T02:03:16.819Z,2.20
2022-11-04T02:05:47.192Z,1.73
2022-11-04T02:08:16.323Z,1.57
2022-11-04T02:10:48.482Z,1.70
2022-11-04T02:13:15.176Z,1.50
2022-11-04T02:15:46.441Z,1.50
2022-11-04T02:18:31.880Z,1.70
2022-11-04T02:21:20.858Z,1.60
2022-11-04T02:23:59.743Z,1.63
2022-11-04T02:26:46.177Z,1.40
2022-11-04T02:29:21.529Z,1.60
2022-11-04T02:31:53.506Z,1.20
2022-11-04T02:34:23.087Z,1.80
2022-11-04T02:36:53.970Z,1.50
2022-11-04T02:39:25.517Z,1.20
2022-11-04T02:41:57.790Z,1.40
2022-11-04T02:44:30.847Z,1.70
2022-11-04T02:47:01.499Z,1.90
2022-11-04T02:49:30.882Z,1.40
2022-11-04T02:52:02.055Z,1.20
2022-11-04T02:54:34.350Z,1.20
2022-11-04T02:57:03.314Z,1.67
2022-11-04T02:59:34.247Z,1.33
2022-11-04T03:02:03.865Z,1.73
2022-11-04T03:04:33.449Z,1.30
2022-11-04T03:07:02.720Z,1.30
2022-11-04T03:09:31.516Z,1.20
2022-11-04T03:12:02.377Z,1.10
2022-11-04T03:14:32.112Z,1.50
2022-11-04T03:17:03.961Z,1.60
2022-11-04T03:19:35.195Z,1.40
2022-11-04T03:22:05.402Z,1.40
2022-11-04T03:24:33.426Z,1.60
2022-11-04T03:27:02.521Z,1.10
2022-11-04T03:29:31.903Z,1.63
2022-11-04T03:32:06.303Z,0.97
2022-11-04T03:34:34.422Z,1.17
2022-11-04T03:37:02.145Z,1.60
2022-11-04T03:39:29.830Z,1.00
2022-11-04T03:41:58.270Z,1.10
2022-11-04T03:44:26.440Z,1.20
2022-11-04T03:46:54.847Z,0.77
2022-11-04T03:49:24.941Z,1.20
2022-11-04T03:51:53.246Z,1.23
2022-11-04T03:54:21.036Z,1.03
2022-11-04T03:57:01.335Z,1.03
2022-11-04T03:59:43.828Z,1.30
2022-11-04T04:02:15.129Z,1.40
2022-11-04T04:04:49.645Z,1.23
2022-11-04T04:07:19.251Z,1.70
2022-11-04T04:09:49.483Z,1.33
2022-11-04T04:12:19.100Z,1.23
2022-11-04T04:14:50.283Z,1.20
2022-11-04T04:17:20.273Z,1.63
2022-11-04T04:19:52.358Z,1.30
2022-11-04T04:22:21.977Z,1.13
2022-11-04T04:25:08.906Z,1.00
2022-11-04T04:27:36.885Z,1.40
2022-11-04T04:30:06.560Z,1.03
2022-11-04T04:32:35.922Z,1.10
2022-11-04T04:35:22.436Z,1.40
2022-11-04T04:37:50.306Z,1.20
2022-11-04T04:40:37.692Z,1.00
2022-11-04T04:43:37.758Z,1.00
2022-11-04T04:46:05.517Z,1.10
2022-11-04T04:48:33.237Z,1.20
2022-11-04T04:51:03.076Z,1.30
2022-11-04T04:53:30.726Z,1.20
2022-11-04T04:55:58.439Z,0.77
2022-11-04T04:58:26.395Z,1.40
2022-11-04T05:00:54.149Z,1.00
2022-11-04T05:03:21.794Z,1.00
2022-11-04T05:05:51.671Z,1.00
2022-11-04T05:08:22.799Z,1.00
2022-11-04T05:10:50.533Z,1.17
2022-11-04T05:13:30.643Z,0.90
2022-11-04T05:15:58.448Z,1.00
2022-11-04T05:18:26.202Z,1.00
2022-11-04T05:20:54.038Z,1.07
2022-11-04T05:23:23.232Z,1.23
2022-11-04T05:25:50.869Z,1.10
2022-11-04T05:28:18.485Z,1.40
2022-11-04T05:30:46.176Z,1.10
2022-11-04T05:33:13.812Z,1.30
2022-11-04T05:35:41.439Z,1.17
2022-11-04T05:38:09.111Z,1.30
2022-11-04T05:40:38.342Z,1.10
2022-11-04T05:43:06.155Z,1.43
2022-11-04T05:45:34.037Z,1.33
2022-11-04T05:48:02.213Z,1.23
2022-11-04T05:50:30.203Z,1.50
2022-11-04T05:52:58.272Z,1.23
2022-11-04T05:55:29.247Z,1.17
2022-11-04T05:57:59.419Z,1.13
2022-11-04T06:00:27.725Z,1.60
2022-11-04T06:02:57.269Z,1.27
2022-11-04T06:05:25.210Z,1.40
2022-11-04T06:07:52.861Z,1.10
2022-11-04T06:10:20.501Z,0.83
2022-11-04T06:12:48.199Z,1.07
2022-11-04T06:15:17.349Z,1.00
2022-11-04T06:17:45.026Z,0.93
2022-11-04T06:20:12.813Z,1.60
2022-11-04T06:22:40.444Z,1.17
2022-11-04T06:25:09.147Z,1.10
2022-11-04T06:27:36.779Z,1.00
2022-11-04T06:30:04.598Z,1.10
2022-11-04T06:32:34.384Z,1.50
2022-11-04T06:35:02.000Z,1.03
2022-11-04T06:37:29.669Z,1.00
2022-11-04T06:39:57.347Z,0.90
2022-11-04T06:42:26.862Z,0.97
2022-11-04T06:44:54.749Z,1.20
2022-11-04T06:47:25.012Z,1.00
2022-11-04T06:49:54.349Z,1.33
2022-11-04T06:52:22.001Z,1.20
2022-11-04T06:54:49.631Z,1.60
2022-11-04T06:57:17.280Z,0.97
2022-11-04T06:59:44.940Z,1.40
2022-11-04T07:02:13.138Z,1.13
2022-11-04T07:04:40.918Z,1.43
2022-11-04T07:07:10.000Z,1.23
2022-11-04T07:09:37.692Z,1.00
2022-11-04T07:12:05.760Z,0.93
2022-11-04T07:14:33.399Z,0.70
2022-11-04T07:17:01.045Z,1.40
2022-11-04T07:19:28.697Z,1.10
2022-11-04T07:21:56.532Z,1.00
2022-11-04T07:24:25.627Z,1.10
2022-11-04T07:26:58.240Z,1.37
2022-11-04T07:29:28.929Z,1.07
2022-11-04T07:31:56.629Z,1.13
2022-11-04T07:34:24.290Z,0.90
2022-11-04T07:36:51.897Z,1.00
2022-11-04T07:39:19.539Z,0.90
2022-11-04T07:41:48.617Z,1.00
2022-11-04T07:44:16.267Z,1.00
2022-11-04T07:46:43.917Z,0.70
2022-11-04T07:49:11.576Z,0.73
2022-11-04T07:51:39.211Z,0.97
2022-11-04T07:54:06.906Z,0.80
2022-11-04T07:56:34.574Z,0.83
2022-11-04T07:59:06.534Z,0.73
2022-11-04T08:01:34.262Z,0.60
2022-11-04T08:04:01.923Z,0.80
2022-11-04T08:06:31.981Z,1.00
2022-11-04T08:08:59.795Z,0.97
2022-11-04T08:11:28.524Z,0.80
2022-11-04T08:13:56.953Z,0.87
2022-11-04T08:16:31.438Z,1.20
2022-11-04T08:19:02.598Z,1.23
2022-11-04T08:21:30.682Z,1.00
2022-11-04T08:23:58.373Z,0.90
2022-11-04T08:26:26.239Z,1.00
2022-11-04T08:28:54.192Z,0.80
2022-11-04T08:31:24.303Z,0.80
2022-11-04T08:33:53.934Z,1.17
2022-11-04T08:36:22.821Z,0.70
2022-11-04T08:38:50.764Z,0.87
2022-11-04T08:41:19.772Z,0.80
2022-11-04T08:43:47.874Z,1.10
2022-11-04T08:46:15.841Z,1.20
2022-11-04T08:48:43.905Z,1.20
2022-11-04T08:51:14.954Z,2.10
2022-11-04T08:53:42.814Z,1.63
2022-11-04T08:56:11.451Z,1.50
2022-11-04T08:58:39.201Z,1.20
2022-11-04T09:01:07.033Z,1.00
2022-11-04T09:03:36.898Z,1.17
2022-11-04T09:06:04.609Z,1.40
2022-11-04T09:08:33.630Z,1.20
2022-11-04T09:11:01.891Z,1.10
2022-11-04T09:13:29.543Z,1.33
2022-11-04T09:15:57.175Z,1.00
2022-11-04T09:18:25.316Z,1.20
2022-11-04T09:20:52.955Z,1.60
2022-11-04T09:23:20.651Z,1.43
2022-11-04T09:25:49.702Z,1.80
2022-11-04T09:28:17.343Z,1.60
2022-11-04T09:30:44.994Z,1.83
2022-11-04T09:33:12.631Z,1.50
2022-11-04T09:35:40.302Z,1.53
2022-11-04T09:38:07.902Z,1.70
2022-11-04T09:40:36.484Z,1.73
2022-11-04T09:43:14.605Z,1.50
2022-11-04T09:45:43.487Z,1.60
2022-11-04T09:48:14.287Z,1.67
2022-11-04T09:50:46.418Z,2.20
2022-11-04T09:53:17.829Z,1.50
2022-11-04T09:55:50.602Z,1.47
2022-11-04T09:58:19.771Z,2.33
2022-11-04T10:00:51.063Z,1.17
2022-11-04T10:03:26.736Z,1.37
2022-11-04T10:05:59.222Z,1.40
2022-11-04T10:08:38.193Z,1.00
2022-11-04T10:11:11.999Z,0.77
2022-11-04T10:13:47.293Z,0.60
2022-11-04T10:16:29.287Z,0.63
2022-11-04T10:19:03.530Z,0.60
2022-11-04T10:21:37.535Z,0.77
2022-11-04T10:24:08.449Z,0.73
2022-11-04T10:26:43.388Z,0.80
2022-11-04T10:29:15.003Z,0.60
2022-11-04T10:31:44.547Z,1.10
2022-11-04T10:34:16.433Z,0.80
2022-11-04T10:36:44.483Z,1.30
2022-11-04T10:39:18.391Z,0.40
2022-11-04T10:41:47.698Z,0.80
2022-11-04T10:44:20.606Z,1.10
2022-11-04T10:46:53.238Z,0.70
2022-11-04T10:49:30.139Z,0.40
2022-11-04T10:51:58.165Z,1.07
2022-11-04T10:54:26.870Z,0.90
2022-11-04T10:56:55.418Z,1.10
2022-11-04T10:59:28.769Z,0.90
2022-11-04T11:01:57.087Z,0.90
2022-11-04T11:04:29.890Z,1.00
2022-11-04T11:06:58.678Z,0.60
2022-11-04T11:09:29.608Z,0.80
2022-11-04T11:11:59.098Z,0.60
2022-11-04T11:14:35.862Z,1.00
2022-11-04T11:17:20.744Z,1.40
2022-11-04T11:19:51.041Z,6.07
2022-11-04T11:22:31.598Z,2.17
2022-11-04T11:25:14.157Z,1.37
2022-11-04T11:27:42.496Z,1.10
2022-11-04T11:30:21.399Z,1.10
2022-11-04T11:32:56.736Z,1.00
2022-11-04T11:35:26.792Z,1.10
2022-11-04T11:37:55.874Z,0.60
2022-11-04T11:40:27.865Z,0.80
2022-11-04T11:42:56.538Z,0.63
2022-11-04T11:45:26.628Z,0.40
2022-11-04T11:47:56.300Z,0.60
2022-11-04T11:50:32.622Z,0.87
2022-11-04T11:53:09.258Z,0.73
2022-11-04T11:55:37.922Z,0.80
2022-11-04T12:01:09.940Z,0.90
2022-11-04T12:09:34.684Z,0.50
2022-11-04T12:12:07.023Z,0.60
2022-11-04T12:14:43.593Z,0.40
2022-11-04T12:17:22.828Z,0.70
2022-11-04T12:19:55.141Z,0.50
2022-11-04T12:22:27.380Z,0.80
2022-11-04T12:25:05.055Z,1.00
2022-11-04T12:27:36.032Z,0.90
2022-11-04T12:30:10.706Z,0.77
2022-11-04T12:32:57.919Z,1.13
2022-11-04T12:35:31.389Z,0.43
2022-11-04T12:38:05.745Z,0.60
2022-11-04T12:40:37.246Z,0.63
2022-11-04T12:43:12.025Z,0.73
2022-11-04T12:45:46.084Z,0.77
2022-11-04T12:48:22.703Z,0.80
2022-11-04T12:51:00.279Z,1.00
2022-11-04T12:53:43.415Z,0.43
2022-11-04T12:56:12.588Z,0.60
2022-11-04T12:58:44.381Z,0.90
2022-11-04T13:01:15.694Z,1.30
2022-11-04T13:03:48.175Z,0.67
2022-11-04T13:06:18.566Z,0.70
2022-11-04T13:08:49.336Z,0.63
2022-11-04T13:11:26.899Z,0.80
2022-11-04T13:14:02.239Z,0.80
2022-11-04T13:16:31.671Z,0.87
2022-11-04T13:19:01.435Z,0.90
2022-11-04T13:21:34.408Z,0.83
2022-11-04T13:24:04.370Z,0.90
2022-11-04T13:26:32.985Z,1.17
2022-11-04T13:29:08.875Z,0.57
2022-11-04T13:31:44.985Z,0.70
2022-11-04T13:34:23.036Z,0.77
2022-11-04T13:36:57.292Z,0.63
2022-11-04T13:39:27.866Z,0.60
2022-11-04T13:42:22.840Z,0.50
2022-11-04T13:44:52.653Z,0.70
2022-11-04T13:47:22.347Z,0.60
2022-11-04T13:49:52.866Z,0.80
2022-11-04T13:52:20.838Z,0.73
2022-11-04T13:54:54.415Z,0.87
2022-11-04T13:57:22.809Z,0.70
2022-11-04T14:00:24.313Z,0.73
2022-11-04T14:02:52.723Z,0.80
2022-11-04T14:05:40.046Z,0.63
2022-11-04T14:08:13.471Z,0.67
2022-11-04T14:10:45.051Z,0.77
2022-11-04T14:13:27.577Z,0.90
2022-11-04T14:16:02.636Z,1.00
2022-11-04T14:18:31.038Z,1.10
2022-11-04T14:21:02.758Z,0.87
2022-11-04T14:23:32.138Z,0.87
2022-11-04T14:26:01.443Z,0.60
2022-11-04T14:28:30.024Z,0.77
2022-11-04T14:30:58.625Z,0.70
2022-11-04T14:33:50.996Z,0.60
2022-11-04T14:36:28.785Z,1.03
2022-11-04T14:38:59.643Z,0.67
2022-11-04T14:41:51.166Z,1.00
2022-11-04T14:44:26.355Z,0.70
2022-11-04T14:46:56.786Z,0.70
2022-11-04T14:49:39.456Z,1.10
2022-11-04T14:52:08.007Z,0.90
2022-11-04T14:54:37.762Z,0.70
2022-11-04T14:57:09.050Z,1.00
2022-11-04T14:59:36.711Z,1.40
2022-11-04T15:02:04.537Z,1.20
2022-11-04T15:04:32.766Z,0.90
2022-11-04T15:07:01.385Z,0.87
2022-11-04T15:09:30.214Z,1.20
2022-11-04T15:12:25.700Z,1.43
2022-11-04T15:14:53.772Z,2.27
2022-11-04T15:17:22.726Z,1.50
2022-11-04T15:19:52.092Z,1.80
2022-11-04T15:22:20.255Z,1.13
2022-11-04T15:24:47.960Z,1.47
2022-11-04T15:27:18.467Z,2.03
2022-11-04T15:29:54.238Z,1.40
2022-11-04T15:32:21.905Z,1.87
2022-11-04T15:34:49.667Z,1.80
2022-11-04T15:37:18.345Z,1.77
2022-11-04T15:39:47.289Z,1.70
2022-11-04T15:42:35.246Z,1.40
2022-11-04T15:45:18.780Z,1.23
2022-11-04T15:47:46.440Z,1.10
2022-11-04T15:50:22.327Z,2.17
2022-11-04T15:52:51.788Z,1.33
2022-11-04T15:55:21.386Z,1.20
2022-11-04T15:57:50.023Z,1.40
2022-11-04T16:00:25.878Z,1.30
2022-11-04T16:02:57.699Z,1.20
2022-11-04T16:05:27.183Z,1.57
2022-11-04T16:07:56.415Z,1.00
2022-11-04T16:10:25.678Z,1.30
2022-11-04T16:12:56.569Z,1.57
2022-11-04T16:15:39.729Z,1.00
2022-11-04T16:18:08.505Z,1.50
2022-11-04T16:20:36.655Z,2.00
2022-11-04T16:23:05.094Z,1.63
2022-11-04T16:25:35.568Z,1.50
2022-11-04T16:28:03.453Z,1.40
2022-11-04T16:30:31.391Z,1.20
2022-11-04T16:33:11.744Z,1.03
2022-11-04T16:35:43.161Z,1.23
2022-11-04T16:38:14.734Z,0.90
2022-11-04T16:40:43.643Z,3.37
2022-11-04T16:43:13.641Z,1.97
2022-11-04T16:45:43.416Z,1.30
2022-11-04T16:48:16.174Z,0.90
2022-11-04T16:50:44.392Z,1.80
2022-11-04T16:53:12.457Z,1.40
2022-11-04T16:55:41.912Z,2.70
2022-11-04T16:58:14.353Z,2.17
2022-11-04T17:00:44.004Z,1.30
2022-11-04T17:03:21.815Z,1.30
2022-11-04T17:05:50.248Z,1.20
2022-11-04T17:08:17.937Z,2.17
2022-11-04T17:10:45.742Z,1.40
2022-11-04T17:13:13.401Z,1.70
2022-11-04T17:15:41.386Z,2.23
2022-11-04T17:18:10.565Z,2.10
2022-11-04T17:20:40.685Z,1.60
2022-11-04T17:23:08.610Z,2.03
2022-11-04T17:25:36.414Z,1.90
2022-11-04T17:28:04.057Z,2.30
2022-11-04T17:30:31.766Z,2.10
2022-11-04T17:33:00.101Z,2.57
2022-11-04T17:35:28.112Z,2.03
2022-11-04T17:37:57.398Z,1.10
2022-11-04T17:40:25.373Z,1.70
2022-11-04T17:43:12.654Z,1.50
2022-11-04T17:45:41.114Z,1.77
2022-11-04T17:48:10.208Z,1.80
2022-11-04T17:50:39.361Z,1.90
2022-11-04T17:53:08.803Z,1.47
2022-11-04T17:55:40.745Z,2.10
2022-11-04T17:58:08.717Z,1.80
2022-11-04T18:00:36.421Z,2.27
2022-11-04T18:03:04.079Z,1.80
2022-11-04T18:05:31.727Z,2.77
2022-11-04T18:07:59.365Z,1.57
2022-11-04T18:10:28.426Z,3.83
2022-11-04T18:12:55.326Z,1.67
2022-11-04T18:15:22.997Z,1.80
2022-11-04T18:17:52.662Z,1.50
2022-11-04T18:20:20.489Z,1.83
2022-11-04T18:22:48.192Z,1.37
2022-11-04T18:25:15.891Z,1.30
2022-11-04T18:27:45.043Z,2.07
2022-11-04T18:30:13.295Z,1.80
2022-11-04T18:32:41.010Z,1.67
2022-11-04T18:35:09.079Z,1.67
2022-11-04T18:37:36.882Z,1.80
2022-11-04T18:40:04.782Z,1.30
2022-11-04T18:42:32.450Z,3.33
2022-11-04T18:45:01.951Z,2.03
2022-11-04T18:47:29.680Z,2.47
2022-11-04T18:49:57.313Z,1.53
2022-11-04T18:52:25.409Z,1.93
2022-11-04T18:54:53.087Z,1.50
2022-11-04T18:57:20.779Z,1.97
2022-11-04T18:59:48.538Z,1.40
2022-11-04T19:02:20.807Z,2.40
2022-11-04T19:04:48.844Z,1.40
2022-11-04T19:07:16.527Z,1.87
2022-11-04T19:09:47.166Z,2.07
2022-11-04T19:12:33.328Z,1.77
2022-11-04T19:15:01.147Z,2.13
2022-11-04T19:17:30.175Z,1.97
2022-11-04T19:19:58.181Z,2.33
2022-11-04T19:22:26.633Z,2.17
2022-11-04T19:24:55.186Z,1.87
2022-11-04T19:27:25.293Z,1.93
2022-11-04T19:29:54.410Z,2.20
2022-11-04T19:32:22.369Z,2.23
2022-11-04T19:34:51.437Z,2.37
2022-11-04T19:37:19.095Z,2.60
2022-11-04T19:39:46.740Z,2.00
2022-11-04T19:42:32.508Z,2.40
2022-11-04T19:45:00.239Z,1.57
2022-11-04T19:47:28.099Z,2.70
2022-11-04T19:49:57.448Z,1.57
2022-11-04T19:52:26.216Z,1.63
2022-11-04T19:54:56.534Z,1.80
2022-11-04T19:57:24.309Z,1.97
2022-11-04T19:59:52.422Z,2.37
2022-11-04T20:02:20.271Z,2.73
2022-11-04T20:04:50.069Z,1.83
2022-11-04T20:07:19.266Z,1.73
2022-11-04T20:09:47.325Z,2.50
2022-11-04T20:12:32.770Z,1.97
2022-11-04T20:15:00.437Z,2.77
2022-11-04T20:17:28.190Z,2.00
2022-11-04T20:19:59.273Z,2.00
2022-11-04T20:22:28.701Z,2.20
2022-11-04T20:24:56.931Z,2.27
2022-11-04T20:27:24.778Z,1.70
2022-11-04T20:29:52.859Z,2.23
2022-11-04T20:32:20.565Z,2.50
2022-11-04T20:34:48.847Z,2.33
2022-11-04T20:37:16.825Z,3.07
2022-11-04T20:39:45.966Z,2.60
2022-11-04T20:42:13.778Z,2.80
2022-11-04T20:44:41.481Z,2.50
2022-11-04T20:47:09.194Z,2.00
2022-11-04T20:49:38.526Z,2.37
2022-11-04T20:52:06.670Z,2.87
2022-11-04T20:54:34.461Z,3.33
2022-11-04T20:57:03.592Z,3.00
2022-11-04T20:59:32.003Z,2.73
2022-11-04T21:02:00.618Z,2.73
2022-11-04T21:04:35.937Z,2.67
2022-11-04T21:07:06.935Z,2.63
2022-11-04T21:09:34.931Z,2.90
2022-11-04T21:12:04.218Z,3.40
2022-11-04T21:14:34.799Z,3.00
2022-11-04T21:17:03.196Z,2.87
2022-11-04T21:19:30.835Z,2.50
2022-11-04T21:21:58.502Z,2.90
2022-11-04T21:24:26.430Z,2.53
2022-11-04T21:26:54.169Z,3.13
2022-11-04T21:29:23.267Z,2.67
2022-11-04T21:31:50.944Z,4.73
2022-11-04T21:34:18.704Z,3.70
2022-11-04T21:36:46.380Z,3.17
2022-11-04T21:39:14.488Z,2.90
2022-11-04T21:41:42.133Z,3.00
2022-11-04T21:44:11.840Z,2.67
2022-11-04T21:46:40.854Z,2.90
2022-11-04T21:49:08.527Z,2.53
2022-11-04T21:51:36.162Z,2.37
2022-11-04T21:54:06.064Z,2.87
2022-11-04T21:56:34.094Z,3.03
2022-11-04T21:59:02.105Z,2.90
2022-11-04T22:01:30.617Z,2.80
2022-11-04T22:04:00.795Z,2.73
2022-11-04T22:06:33.472Z,2.40
2022-11-04T22:09:03.113Z,2.20
2022-11-04T22:11:31.716Z,2.33
2022-11-04T22:14:00.292Z,2.50
2022-11-04T22:16:28.908Z,2.33
2022-11-04T22:18:58.008Z,2.70
2022-11-04T22:21:28.433Z,2.67
2022-11-04T22:23:56.300Z,2.10
2022-11-04T22:26:25.467Z,1.97
2022-11-04T22:28:54.987Z,1.97
2022-11-04T22:31:25.895Z,1.60
2022-11-04T22:33:54.027Z,2.33
2022-11-04T22:36:22.776Z,1.60
2022-11-04T22:38:51.813Z,1.67
2022-11-04T22:41:21.651Z,1.80
2022-11-04T22:43:49.324Z,1.30
2022-11-04T22:46:19.116Z,1.70
2022-11-04T22:48:46.992Z,2.47
2022-11-04T22:51:15.021Z,1.70
2022-11-04T22:53:43.643Z,1.80
2022-11-04T22:56:14.522Z,1.80
2022-11-04T22:58:42.431Z,1.60
2022-11-04T23:01:11.227Z,1.60
2022-11-04T23:03:39.288Z,1.60
2022-11-04T23:06:08.461Z,1.27
2022-11-04T23:08:37.041Z,1.47
2022-11-04T23:11:25.734Z,1.40
2022-11-04T23:14:19.774Z,1.33
2022-11-04T23:17:06.921Z,1.40
2022-11-04T23:19:34.620Z,1.70
2022-11-04T23:22:19.867Z,1.40
2022-11-04T23:25:05.042Z,1.40
2022-11-04T23:27:50.331Z,1.63
2022-11-04T23:30:22.355Z,1.73
2022-11-04T23:32:50.213Z,1.77
2022-11-04T23:35:35.925Z,1.70
2022-11-04T23:38:03.713Z,1.60
2022-11-04T23:40:32.411Z,1.50
2022-11-04T23:43:00.077Z,1.80
2022-11-04T23:45:46.483Z,1.67
2022-11-04T23:48:32.063Z,1.40
2022-11-04T23:51:17.953Z,1.30
2022-11-04T23:54:03.460Z,1.60
2022-11-04T23:56:48.820Z,1.50
2022-11-04T23:59:36.979Z,1.53
